createdAt,value
2024-05-09T00:05:17.046Z,100838.69
2024-05-09T00:10:58.257Z,100846.92
2024-05-09T00:16:38.855Z,100845.77
2024-05-09T00:22:18.567Z,100849.91
2024-05-09T00:27:59.905Z,100857.63
2024-05-09T00:33:40.610Z,100859.22
2024-05-09T00:39:20.628Z,100860.82
2024-05-09T00:45:00.640Z,100867.89
2024-05-09T00:50:42.594Z,100863.48
2024-05-09T00:56:23.306Z,100871.37
2024-05-09T01:02:03.851Z,100875.71
2024-05-09T01:07:44.191Z,100883.61
2024-05-09T01:13:24.259Z,100886.31
2024-05-09T01:19:08.823Z,100899.59
2024-05-09T01:24:49.229Z,100905.66
2024-05-09T01:30:35.411Z,100909.09
2024-05-09T01:36:13.090Z,100921.14
2024-05-09T01:41:53.349Z,100931.91
2024-05-09T01:47:33.389Z,100931.09
2024-05-09T01:53:15.162Z,100948.38
2024-05-09T01:58:55.184Z,100946.13
2024-05-09T02:04:35.749Z,100943.62
2024-05-09T02:10:20.495Z,100948.95
2024-05-09T02:15:58.243Z,100959.37
2024-05-09T02:21:38.414Z,100970.34
2024-05-09T02:27:18.766Z,100972.91
2024-05-09T02:32:59.434Z,100976.50
2024-05-09T02:38:39.874Z,100988.39
2024-05-09T02:44:20.816Z,100993.51
2024-05-09T02:50:04.613Z,100998.52
2024-05-09T02:55:45.995Z,101002.69
2024-05-09T03:05:23.070Z,101011.93
2024-05-09T03:11:03.497Z,101016.83
2024-05-09T03:16:43.624Z,101017.27
2024-05-09T03:22:23.929Z,101018.84
2024-05-09T03:28:04.083Z,101025.06
2024-05-09T03:33:44.017Z,101026.14
2024-05-09T03:39:24.199Z,101028.59
2024-05-09T03:45:07.558Z,101030.88
2024-05-09T03:50:47.924Z,101028.56
2024-05-09T03:56:28.939Z,101035.75
2024-05-09T04:02:08.826Z,101032.05
2024-05-09T04:07:49.139Z,101034.97
2024-05-09T04:13:29.437Z,101037.92
2024-05-09T04:19:09.508Z,101033.52
2024-05-09T04:24:50.185Z,101044.38
2024-05-09T04:30:37.640Z,101034.72
2024-05-09T04:36:13.255Z,101044.00
2024-05-09T04:41:53.557Z,101044.13
2024-05-09T04:47:33.386Z,101046.23
2024-05-09T04:53:17.391Z,101058.28
2024-05-09T04:58:57.422Z,101056.36
2024-05-09T05:05:40.734Z,101058.86
2024-05-09T05:11:21.213Z,101064.64
2024-05-09T05:17:01.206Z,101055.10
2024-05-09T05:22:42.935Z,101056.15
2024-05-09T05:28:23.606Z,101057.55
2024-05-09T05:34:04.266Z,101055.16
2024-05-09T05:39:44.520Z,101049.22
2024-05-09T05:45:26.579Z,101062.16
2024-05-09T05:51:07.221Z,101059.73
2024-05-09T05:56:47.448Z,101061.67
2024-05-09T06:02:27.861Z,101064.43
2024-05-09T06:08:08.555Z,101062.97
2024-05-09T06:13:48.840Z,101055.03
2024-05-09T06:19:29.310Z,101051.52
2024-05-09T06:25:09.726Z,101053.52
2024-05-09T06:30:49.824Z,101048.88
2024-05-09T06:36:29.984Z,101060.48
2024-05-09T06:42:10.299Z,101052.86
2024-05-09T06:47:50.520Z,101058.14
2024-05-09T06:53:30.457Z,101060.98
2024-05-09T06:59:10.675Z,101066.28
2024-05-09T07:04:50.765Z,101058.50
2024-05-09T07:10:34.882Z,101064.67
2024-05-09T07:16:12.205Z,101068.16
2024-05-09T07:21:52.954Z,101061.09
2024-05-09T07:27:34.475Z,101064.67
2024-05-09T07:33:19.359Z,101059.34
2024-05-09T07:39:00.154Z,101066.44
2024-05-09T07:44:40.498Z,101055.86
2024-05-09T07:56:02.186Z,101051.41
2024-05-09T08:01:42.988Z,101050.55
2024-05-09T08:07:23.428Z,101054.08
2024-05-09T08:13:05.813Z,101057.59
2024-05-09T08:18:46.445Z,101049.67
2024-05-09T08:24:26.565Z,101049.69
2024-05-09T08:30:10.212Z,101044.34
2024-05-09T08:35:49.504Z,101038.97
2024-05-09T08:41:31.972Z,101036.77
2024-05-09T08:47:12.435Z,101036.98
2024-05-09T08:52:52.374Z,101038.58
2024-05-09T08:58:34.575Z,101038.03
2024-05-09T09:05:40.046Z,101020.30
2024-05-09T09:11:20.154Z,101024.81
2024-05-09T09:17:00.736Z,101024.41
2024-05-09T09:22:41.107Z,101005.61
2024-05-09T09:28:22.540Z,101001.22
2024-05-09T09:34:06.861Z,101003.56
2024-05-09T09:39:49.155Z,100997.95
2024-05-09T09:45:31.360Z,100999.08
2024-05-09T09:51:11.146Z,100998.63
2024-05-09T09:56:51.794Z,100999.97
2024-05-09T10:02:32.182Z,100999.09
2024-05-09T10:08:13.311Z,100989.30
2024-05-09T10:13:54.283Z,100985.07
2024-05-09T10:19:34.671Z,100982.60
2024-05-09T10:25:15.740Z,100984.86
2024-05-09T10:31:12.795Z,100970.81
2024-05-09T10:36:55.388Z,100968.05
2024-05-09T10:42:38.599Z,100964.11
2024-05-09T10:48:20.892Z,100950.67
2024-05-09T10:54:01.116Z,100962.31
2024-05-09T10:59:45.035Z,100932.28
2024-05-09T11:05:26.337Z,100931.56
2024-05-09T11:11:07.452Z,100940.65
2024-05-09T11:16:59.795Z,100935.91
2024-05-09T11:22:40.116Z,100917.19
2024-05-09T11:28:21.914Z,100916.62
2024-05-09T11:34:01.813Z,100913.09
2024-05-09T11:39:42.133Z,100902.59
2024-05-09T11:45:22.204Z,100913.36
2024-05-09T11:51:02.347Z,100898.17
2024-05-09T11:56:43.288Z,100886.14
2024-05-09T12:05:38.908Z,100873.58
2024-05-09T12:11:19.351Z,100876.98
2024-05-09T12:17:00.597Z,100871.05
2024-05-09T12:22:40.765Z,100871.14
2024-05-09T12:28:21.513Z,100870.30
2024-05-09T12:34:01.779Z,100870.85
2024-05-09T12:39:41.721Z,100857.07
2024-05-09T12:45:22.072Z,100852.01
2024-05-09T12:51:02.083Z,100847.66
2024-05-09T12:56:42.197Z,100841.24
2024-05-09T13:02:23.176Z,100838.05
2024-05-09T13:08:04.123Z,100828.39
2024-05-09T13:13:44.785Z,100826.20
2024-05-09T13:19:24.950Z,100810.16
2024-05-09T13:25:05.414Z,100815.13
2024-05-09T13:30:45.194Z,100795.47
2024-05-09T13:36:25.515Z,100815.93
2024-05-09T13:42:06.494Z,100807.20
2024-05-09T13:47:46.310Z,100804.75
2024-05-09T13:53:26.417Z,100805.47
2024-05-09T13:59:07.373Z,100797.69
2024-05-09T14:04:47.420Z,100795.82
2024-05-09T14:10:31.165Z,100790.04
2024-05-09T14:16:09.947Z,100789.70
2024-05-09T14:21:50.381Z,100793.98
2024-05-09T14:27:31.632Z,100791.65
2024-05-09T14:33:11.780Z,100776.28
2024-05-09T14:38:52.388Z,100775.30
2024-05-09T14:44:32.780Z,100785.08
2024-05-09T14:50:19.603Z,100772.16
2024-05-09T14:55:55.005Z,100766.52
2024-05-09T15:05:26.827Z,100762.34
2024-05-09T15:11:07.006Z,100760.78
2024-05-09T15:16:48.091Z,100764.52
2024-05-09T15:22:28.640Z,100755.66
2024-05-09T15:28:08.966Z,100761.23
2024-05-09T15:33:49.731Z,100756.97
2024-05-09T15:39:30.072Z,100751.57
2024-05-09T15:45:10.274Z,100756.15
2024-05-09T15:50:50.714Z,100756.15
2024-05-09T15:56:31.886Z,100753.38
2024-05-09T16:02:12.516Z,100750.70
2024-05-09T16:07:53.255Z,100750.05
2024-05-09T16:13:33.274Z,100761.25
2024-05-09T16:19:13.645Z,100757.42
2024-05-09T16:24:54.457Z,100745.55
2024-05-09T16:30:36.045Z,100749.91
2024-05-09T16:36:17.066Z,100757.00
2024-05-09T16:41:56.748Z,100758.25
2024-05-09T16:47:36.959Z,100761.43
2024-05-09T16:53:18.463Z,100758.00
2024-05-09T16:58:58.882Z,100766.95
2024-05-09T17:04:39.514Z,100768.80
2024-05-09T17:10:26.940Z,100772.32
2024-05-09T17:16:01.422Z,100773.20
2024-05-09T17:21:41.356Z,100767.93
2024-05-09T17:27:21.908Z,100778.41
2024-05-09T17:33:02.701Z,100779.26
2024-05-09T17:38:42.534Z,100789.77
2024-05-09T17:44:22.401Z,100786.16
2024-05-09T17:50:09.561Z,100789.54
2024-05-09T17:55:48.103Z,100782.34
2024-05-09T18:05:23.852Z,100801.48
2024-05-09T18:11:04.240Z,100803.78
2024-05-09T18:16:44.801Z,100811.38
2024-05-09T18:22:25.180Z,100816.37
2024-05-09T18:28:06.887Z,100826.70
2024-05-09T18:33:47.002Z,100830.00
2024-05-09T18:39:27.453Z,100828.95
2024-05-09T18:45:07.903Z,100835.75
2024-05-09T18:50:48.971Z,100837.15
2024-05-09T18:56:29.058Z,100850.78
2024-05-09T19:02:09.282Z,100859.38
2024-05-09T19:07:49.448Z,100866.99
2024-05-09T19:13:30.140Z,100858.94
2024-05-09T19:19:10.898Z,100859.51
2024-05-09T19:24:51.403Z,100872.45
2024-05-09T19:30:38.636Z,100875.62
2024-05-09T19:36:13.503Z,100877.06
2024-05-09T19:41:53.169Z,100882.00
2024-05-09T19:47:33.791Z,100882.64
2024-05-09T19:53:14.209Z,100882.28
2024-05-09T19:58:55.278Z,100894.98
2024-05-09T20:04:35.621Z,100892.94
2024-05-09T20:10:23.342Z,100892.53
2024-05-09T20:15:58.184Z,100895.09
2024-05-09T20:21:42.749Z,100901.04
2024-05-09T20:27:23.206Z,100905.69
2024-05-09T20:33:06.327Z,100909.77
2024-05-09T20:38:46.693Z,100906.66
2024-05-09T20:44:27.543Z,100909.86
2024-05-09T20:50:19.682Z,100911.37
2024-05-09T20:55:51.510Z,100911.20
2024-05-09T21:05:56.859Z,100914.44
2024-05-09T21:11:36.956Z,100917.27
2024-05-09T21:17:16.888Z,100926.70
2024-05-09T21:22:59.705Z,100937.06
2024-05-09T21:28:39.845Z,100944.70
2024-05-09T21:34:20.155Z,100950.53
2024-05-09T21:40:00.686Z,100956.05
2024-05-09T21:45:41.095Z,100969.41
2024-05-09T21:51:21.425Z,100963.27
2024-05-09T21:57:01.948Z,100962.91
2024-05-09T22:02:41.982Z,100970.75
2024-05-09T22:08:21.617Z,100973.15
2024-05-09T22:14:01.900Z,100965.70
2024-05-09T22:19:48.678Z,100961.00
2024-05-09T22:25:31.080Z,100964.97
2024-05-09T22:31:11.658Z,100968.14
2024-05-09T22:36:51.895Z,100974.80
2024-05-09T22:42:32.290Z,100968.65
2024-05-09T22:48:12.392Z,100969.14
2024-05-09T22:53:52.644Z,100972.31
2024-05-09T22:59:33.476Z,100959.84
2024-05-09T23:05:13.834Z,100960.30
2024-05-09T23:10:53.986Z,100967.81
2024-05-09T23:16:34.042Z,100968.22
2024-05-09T23:22:14.065Z,100965.28
2024-05-09T23:27:53.867Z,100962.09
2024-05-09T23:33:34.869Z,100968.82
2024-05-09T23:39:15.248Z,100979.90
2024-05-09T23:44:57.491Z,100971.53
2024-05-09T23:50:39.221Z,100969.52
2024-05-09T23:56:21.168Z,100978.80
